createdAt,value
2023-01-11T00:01:19.408Z,-1.99
2023-01-11T00:03:45.839Z,-2.00
2023-01-11T00:06:12.572Z,-1.93
2023-01-11T00:08:39.612Z,-1.89
2023-01-11T00:11:13.763Z,-1.95
2023-01-11T00:13:40.254Z,-1.99
2023-01-11T00:16:08.280Z,-2.07
2023-01-11T00:18:36.304Z,-2.03
2023-01-11T00:21:05.689Z,-2.12
2023-01-11T00:23:33.857Z,-2.06
2023-01-11T00:26:04.286Z,-2.12
2023-01-11T00:28:31.028Z,-2.07
2023-01-11T00:30:57.638Z,-1.98
2023-01-11T00:33:24.158Z,-2.00
2023-01-11T00:35:54.089Z,-2.02
2023-01-11T00:38:40.881Z,-1.97
2023-01-11T00:41:26.692Z,-2.00
2023-01-11T00:44:12.066Z,-1.97
2023-01-11T00:47:08.702Z,-2.05
2023-01-11T00:49:35.424Z,-1.96
2023-01-11T00:52:02.238Z,-1.93
2023-01-11T00:54:28.669Z,-1.85
2023-01-11T00:56:55.136Z,-1.85
2023-01-11T00:59:21.581Z,-1.81
2023-01-11T01:01:48.051Z,-1.69
2023-01-11T01:04:14.509Z,-1.54
2023-01-11T01:06:41.080Z,-1.57
2023-01-11T01:09:07.602Z,-1.57
2023-01-11T01:11:34.080Z,-1.61
2023-01-11T01:14:19.340Z,-1.54
2023-01-11T01:16:47.508Z,-1.47
2023-01-11T01:19:14.457Z,-1.42
2023-01-11T01:21:40.895Z,-1.46
2023-01-11T01:24:07.584Z,-1.55
2023-01-11T01:26:34.106Z,-1.37
2023-01-11T01:29:00.567Z,-1.44
2023-01-11T01:31:27.078Z,-1.47
2023-01-11T01:33:53.571Z,-1.52
2023-01-11T01:36:20.068Z,-1.42
2023-01-11T01:38:46.639Z,-1.37
2023-01-11T01:41:13.307Z,-1.32
2023-01-11T01:43:49.771Z,-1.28
2023-01-11T01:46:18.069Z,-1.32
2023-01-11T01:48:50.247Z,-1.30
2023-01-11T01:51:57.062Z,-1.18
2023-01-11T01:54:30.744Z,-1.22
2023-01-11T01:57:02.142Z,-1.15
2023-01-11T01:59:31.424Z,-0.97
2023-01-11T02:01:58.534Z,-1.00
2023-01-11T02:04:29.027Z,-1.02
2023-01-11T02:07:02.845Z,-0.94
2023-01-11T02:09:43.398Z,-0.91
2023-01-11T02:12:11.141Z,-1.02
2023-01-11T02:14:40.727Z,-0.92
2023-01-11T02:17:07.403Z,-0.84
2023-01-11T02:19:42.035Z,-0.80
2023-01-11T02:22:29.899Z,-0.70
2023-01-11T02:25:35.132Z,-0.67
2023-01-11T02:28:11.123Z,-0.58
2023-01-11T02:30:53.969Z,-0.46
2023-01-11T02:33:38.192Z,-0.44
2023-01-11T02:36:38.457Z,-0.52
2023-01-11T02:39:22.543Z,-0.55
2023-01-11T02:42:19.808Z,-0.52
2023-01-11T02:45:02.516Z,-0.54
2023-01-11T02:47:39.829Z,-0.61
2023-01-11T02:50:20.720Z,-0.53
2023-01-11T02:53:08.282Z,-0.50
2023-01-11T02:55:43.309Z,-0.48
2023-01-11T02:58:12.198Z,-0.40
2023-01-11T03:00:42.673Z,-0.46
2023-01-11T03:03:16.031Z,-0.38
2023-01-11T03:05:50.552Z,-0.41
2023-01-11T03:08:35.976Z,-0.35
2023-01-11T03:11:08.029Z,-0.43
2023-01-11T03:13:57.721Z,-0.46
2023-01-11T03:17:05.056Z,-0.33
2023-01-11T03:19:37.398Z,-0.30
2023-01-11T03:22:35.655Z,-0.32
2023-01-11T03:25:28.459Z,-0.47
2023-01-11T03:28:08.104Z,-0.32
2023-01-11T03:31:01.253Z,-0.30
2023-01-11T03:33:37.642Z,-0.32
2023-01-11T03:36:19.869Z,-0.28
2023-01-11T03:38:49.832Z,-0.25
2023-01-11T03:41:24.309Z,-0.30
2023-01-11T03:43:52.740Z,-0.27
2023-01-11T03:46:34.620Z,-0.24
2023-01-11T03:49:19.439Z,-0.18
2023-01-11T03:51:47.384Z,-0.15
2023-01-11T03:54:18.061Z,-0.11
2023-01-11T03:57:14.969Z,-0.12
2023-01-11T03:59:42.134Z,-0.16
2023-01-11T04:02:20.615Z,-0.32
2023-01-11T04:04:47.507Z,-0.23
2023-01-11T04:07:14.371Z,-0.26
2023-01-11T04:09:40.922Z,-0.23
2023-01-11T04:12:07.519Z,-0.28
2023-01-11T04:14:34.276Z,-0.20
2023-01-11T04:17:00.698Z,-0.20
2023-01-11T04:19:27.257Z,-0.25
2023-01-11T04:21:53.719Z,-0.24
2023-01-11T04:24:20.400Z,-0.27
2023-01-11T04:26:46.886Z,-0.24
2023-01-11T04:29:13.611Z,-0.19
2023-01-11T04:31:40.122Z,-0.13
2023-01-11T04:34:06.899Z,-0.11
2023-01-11T04:36:33.627Z,-0.20
2023-01-11T04:39:00.554Z,-0.10
2023-01-11T04:41:45.362Z,-0.07
2023-01-11T04:44:11.903Z,-0.02
2023-01-11T04:46:38.357Z,-0.06
2023-01-11T04:49:04.811Z,-0.03
2023-01-11T04:51:31.330Z,-0.10
2023-01-11T04:53:57.875Z,0.00
2023-01-11T04:56:24.378Z,0.11
2023-01-11T04:58:50.825Z,0.12
2023-01-11T05:01:19.212Z,0.14
2023-01-11T05:03:46.514Z,0.05
2023-01-11T05:06:13.918Z,0.21
2023-01-11T05:08:44.544Z,0.17
2023-01-11T05:11:11.005Z,0.10
2023-01-11T05:13:43.279Z,0.12
2023-01-11T05:16:19.588Z,0.26
2023-01-11T05:18:47.181Z,0.33
2023-01-11T05:21:15.728Z,0.35
2023-01-11T05:23:42.763Z,0.32
2023-01-11T05:26:15.004Z,0.32
2023-01-11T05:28:41.506Z,0.33
2023-01-11T05:31:07.973Z,0.37
2023-01-11T05:33:34.546Z,0.40
2023-01-11T05:36:15.169Z,0.35
2023-01-11T05:38:42.056Z,0.29
2023-01-11T05:41:10.085Z,0.32
2023-01-11T05:43:57.460Z,0.38
2023-01-11T05:46:25.003Z,0.41
2023-01-11T05:48:51.847Z,0.43
2023-01-11T05:51:18.452Z,0.44
2023-01-11T05:53:45.383Z,0.44
2023-01-11T05:56:12.087Z,0.40
2023-01-11T05:58:38.555Z,0.44
2023-01-11T06:01:06.130Z,0.46
2023-01-11T06:03:32.579Z,0.41
2023-01-11T06:06:00.002Z,0.54
2023-01-11T06:08:26.739Z,0.36
2023-01-11T06:10:54.739Z,0.47
2023-01-11T06:13:27.288Z,0.48
2023-01-11T06:16:04.847Z,0.50
2023-01-11T06:18:40.462Z,0.50
2023-01-11T06:21:08.137Z,0.43
2023-01-11T06:23:36.908Z,0.44
2023-01-11T06:26:06.423Z,0.42
2023-01-11T06:28:33.038Z,0.35
2023-01-11T06:30:59.846Z,0.35
2023-01-11T06:33:28.428Z,0.41
2023-01-11T06:35:56.056Z,0.39
2023-01-11T06:38:24.295Z,0.41
2023-01-11T06:40:58.915Z,0.42
2023-01-11T06:43:26.734Z,0.46
2023-01-11T06:45:54.070Z,0.43
2023-01-11T06:48:22.705Z,0.33
2023-01-11T06:50:54.228Z,0.41
2023-01-11T06:53:20.902Z,0.50
2023-01-11T06:55:55.518Z,0.46
2023-01-11T06:58:25.605Z,0.43
2023-01-11T07:00:53.495Z,0.41
2023-01-11T07:03:24.241Z,0.55
2023-01-11T07:05:52.490Z,0.51
2023-01-11T07:08:20.340Z,0.51
2023-01-11T07:10:47.072Z,0.48
2023-01-11T07:13:16.321Z,0.47
2023-01-11T07:15:44.370Z,0.54
2023-01-11T07:18:11.534Z,0.50
2023-01-11T07:20:38.071Z,0.67
2023-01-11T07:23:04.660Z,0.65
2023-01-11T07:25:31.116Z,0.65
2023-01-11T07:28:02.732Z,0.76
2023-01-11T07:30:31.481Z,0.72
2023-01-11T07:32:59.685Z,0.75
2023-01-11T07:35:28.909Z,0.72
2023-01-11T07:37:55.562Z,0.76
2023-01-11T07:40:22.115Z,0.72
2023-01-11T07:43:09.327Z,0.71
2023-01-11T07:45:45.456Z,0.87
2023-01-11T07:48:13.237Z,0.89
2023-01-11T07:50:44.225Z,0.89
2023-01-11T07:53:12.179Z,0.91
2023-01-11T07:55:39.845Z,0.89
2023-01-11T07:58:10.018Z,1.11
2023-01-11T08:00:36.611Z,1.10
2023-01-11T08:03:03.326Z,1.27
2023-01-11T08:05:33.526Z,1.34
2023-01-11T08:08:00.144Z,1.23
2023-01-11T08:10:26.591Z,1.44
2023-01-11T08:13:11.847Z,1.44
2023-01-11T08:15:39.417Z,1.32
2023-01-11T08:18:06.489Z,1.43
2023-01-11T08:20:33.182Z,1.35
2023-01-11T08:23:07.381Z,1.34
2023-01-11T08:25:34.197Z,1.34
2023-01-11T08:28:02.525Z,1.37
2023-01-11T08:30:30.080Z,1.45
2023-01-11T08:32:57.683Z,1.49
2023-01-11T08:35:25.310Z,1.53
2023-01-11T08:37:51.769Z,1.59
2023-01-11T08:40:18.296Z,1.59
2023-01-11T08:42:44.815Z,1.63
2023-01-11T08:45:11.514Z,1.59
2023-01-11T08:47:38.086Z,1.66
2023-01-11T08:50:05.565Z,1.68
2023-01-11T08:52:32.224Z,1.78
2023-01-11T08:54:58.730Z,1.91
2023-01-11T08:57:25.295Z,1.84
2023-01-11T08:59:51.781Z,2.07
2023-01-11T09:02:18.253Z,2.24
2023-01-11T09:04:44.730Z,2.49
2023-01-11T09:07:11.378Z,2.64
2023-01-11T09:09:40.450Z,2.67
2023-01-11T09:12:07.233Z,2.60
2023-01-11T09:14:34.301Z,2.55
2023-01-11T09:17:00.826Z,2.75
2023-01-11T09:19:27.492Z,2.93
2023-01-11T09:21:57.193Z,3.00
2023-01-11T09:24:23.673Z,2.79
2023-01-11T09:26:50.321Z,2.78
2023-01-11T09:29:17.053Z,2.86
2023-01-11T09:31:43.722Z,2.90
2023-01-11T09:34:12.632Z,2.99
2023-01-11T09:36:40.340Z,2.93
2023-01-11T09:39:11.660Z,2.99
2023-01-11T09:42:07.593Z,3.00
2023-01-11T09:44:37.025Z,3.18
2023-01-11T09:47:19.597Z,3.24
2023-01-11T09:49:56.299Z,3.38
2023-01-11T09:52:23.948Z,3.31
2023-01-11T09:54:51.496Z,3.44
2023-01-11T09:58:02.323Z,3.46
2023-01-11T10:00:35.301Z,3.39
2023-01-11T10:03:33.122Z,3.49
2023-01-11T10:06:06.813Z,3.32
2023-01-11T10:18:33.752Z,3.26
2023-01-11T10:19:18.669Z,3.34
2023-01-11T10:21:46.532Z,3.52
2023-01-11T10:24:17.103Z,3.60
2023-01-11T10:26:44.184Z,3.66
2023-01-11T10:29:21.432Z,3.76
2023-01-11T10:32:10.239Z,3.81
2023-01-11T10:35:02.859Z,3.86
2023-01-11T10:37:50.982Z,3.93
2023-01-11T10:40:39.336Z,4.08
2023-01-11T10:43:22.591Z,4.03
2023-01-11T10:45:53.804Z,4.19
2023-01-11T10:48:27.494Z,4.33
2023-01-11T10:51:27.491Z,4.31
2023-01-11T10:54:14.645Z,4.48
2023-01-11T10:57:01.902Z,4.40
2023-01-11T10:59:59.564Z,4.44
2023-01-11T11:02:44.535Z,4.43
2023-01-11T11:05:19.905Z,4.53
2023-01-11T11:08:13.219Z,4.67
2023-01-11T11:10:58.489Z,4.76
2023-01-11T11:13:49.928Z,4.73
2023-01-11T11:16:22.529Z,4.76
2023-01-11T11:18:58.606Z,4.83
2023-01-11T11:21:38.995Z,4.91
2023-01-11T11:24:24.642Z,4.84
2023-01-11T11:26:59.606Z,4.76
2023-01-11T11:29:30.623Z,4.81
2023-01-11T11:32:00.152Z,4.94
2023-01-11T11:34:28.222Z,4.91
2023-01-11T11:36:59.405Z,4.88
2023-01-11T11:39:33.147Z,4.83
2023-01-11T11:42:14.484Z,4.72
2023-01-11T11:44:41.026Z,4.78
2023-01-11T11:47:16.192Z,4.82
2023-01-11T11:49:43.414Z,4.81
2023-01-11T11:52:17.391Z,4.74
2023-01-11T11:54:57.178Z,4.89
2023-01-11T11:57:31.363Z,4.97
2023-01-11T12:00:29.440Z,4.99
2023-01-11T12:03:00.313Z,4.96
2023-01-11T12:05:27.085Z,5.09
2023-01-11T12:07:55.826Z,5.10
2023-01-11T12:10:28.172Z,5.14
2023-01-11T12:12:56.259Z,5.18
2023-01-11T12:15:34.016Z,5.11
2023-01-11T12:18:27.021Z,5.24
2023-01-11T12:20:54.303Z,5.19
2023-01-11T12:23:24.543Z,5.11
2023-01-11T12:26:06.320Z,5.21
2023-01-11T12:28:40.646Z,5.11
2023-01-11T12:31:15.766Z,5.06
2023-01-11T12:33:44.379Z,5.18
2023-01-11T12:36:24.746Z,5.11
2023-01-11T12:39:09.737Z,5.11
2023-01-11T12:41:46.978Z,5.09
2023-01-11T12:44:15.635Z,5.18
2023-01-11T12:47:11.161Z,5.21
2023-01-11T12:50:00.150Z,5.23
2023-01-11T12:52:36.251Z,5.20
2023-01-11T12:55:15.282Z,5.24
2023-01-11T12:58:14.249Z,5.21
2023-01-11T13:01:12.763Z,5.20
2023-01-11T13:04:13.301Z,5.25
2023-01-11T13:07:00.069Z,5.32
2023-01-11T13:09:52.885Z,5.38
2023-01-11T13:12:33.416Z,5.41
2023-01-11T13:14:59.858Z,5.49
2023-01-11T13:17:36.643Z,5.52
2023-01-11T13:20:59.385Z,5.52
2023-01-11T13:23:32.997Z,5.50
2023-01-11T13:26:25.909Z,5.47
2023-01-11T13:29:07.016Z,5.55
2023-01-11T13:31:35.633Z,5.50
2023-01-11T13:34:13.655Z,5.50
2023-01-11T13:36:45.491Z,5.51
2023-01-11T13:39:20.970Z,5.62
2023-01-11T13:41:52.116Z,5.53
2023-01-11T13:44:21.875Z,5.47
2023-01-11T13:47:11.541Z,5.47
2023-01-11T13:49:48.169Z,5.49
2023-01-11T13:52:22.701Z,5.49
2023-01-11T13:55:00.819Z,5.50
2023-01-11T13:57:34.054Z,5.49
2023-01-11T14:00:15.114Z,5.46
2023-01-11T14:02:54.703Z,5.36
2023-01-11T14:05:22.770Z,5.36
2023-01-11T14:08:22.544Z,5.34
2023-01-11T14:11:11.771Z,5.34
2023-01-11T14:14:06.065Z,5.40
2023-01-11T14:17:05.549Z,5.38
2023-01-11T14:20:00.838Z,5.52
2023-01-11T14:22:36.588Z,5.45
2023-01-11T14:25:15.433Z,5.47
2023-01-11T14:28:06.925Z,5.44
2023-01-11T14:30:54.931Z,5.40
2023-01-11T14:33:43.576Z,5.39
2023-01-11T14:36:30.479Z,5.33
2023-01-11T14:39:20.265Z,5.35
2023-01-11T14:42:31.280Z,5.25
2023-01-11T14:45:03.114Z,5.14
2023-01-11T14:47:37.924Z,5.26
2023-01-11T14:50:23.695Z,5.18
2023-01-11T14:52:52.712Z,5.03
2023-01-11T14:55:23.793Z,5.05
2023-01-11T14:57:55.956Z,5.07
2023-01-11T15:00:22.375Z,5.07
2023-01-11T15:03:12.967Z,5.07
2023-01-11T15:06:20.591Z,4.99
2023-01-11T15:08:50.148Z,5.02
2023-01-11T15:11:30.451Z,5.00
2023-01-11T15:14:04.464Z,4.96
2023-01-11T15:16:52.194Z,4.91
2023-01-11T15:19:29.173Z,4.85
2023-01-11T15:21:57.099Z,4.73
2023-01-11T15:24:28.072Z,4.69
2023-01-11T15:26:56.282Z,4.72
2023-01-11T15:29:35.526Z,4.66
2023-01-11T15:32:02.043Z,4.62
2023-01-11T15:34:49.443Z,4.69
2023-01-11T15:37:36.648Z,4.63
2023-01-11T15:40:09.182Z,4.59
2023-01-11T15:42:47.734Z,4.56
2023-01-11T15:46:16.717Z,4.53
2023-01-11T15:49:03.749Z,4.52
2023-01-11T15:52:09.555Z,4.49
2023-01-11T15:55:08.355Z,4.47
2023-01-11T15:57:59.723Z,4.47
2023-01-11T16:00:48.285Z,4.48
2023-01-11T16:03:54.128Z,4.45
2023-01-11T16:06:35.676Z,4.43
2023-01-11T16:09:20.880Z,4.43
2023-01-11T16:12:11.760Z,4.51
2023-01-11T16:15:20.094Z,4.59
2023-01-11T16:17:48.152Z,4.62
2023-01-11T16:20:20.764Z,4.58
2023-01-11T16:22:51.499Z,4.55
2023-01-11T16:25:19.690Z,4.57
2023-01-11T16:27:52.406Z,4.51
2023-01-11T16:30:19.677Z,4.46
2023-01-11T16:32:46.147Z,4.38
2023-01-11T16:35:25.437Z,4.50
2023-01-11T16:37:57.780Z,4.48
2023-01-11T16:40:30.547Z,4.46
2023-01-11T16:43:14.279Z,4.50
2023-01-11T16:45:43.807Z,4.43
2023-01-11T16:48:20.808Z,4.45
2023-01-11T16:50:56.361Z,4.40
2023-01-11T16:53:24.127Z,4.42
2023-01-11T16:55:57.633Z,4.47
2023-01-11T16:58:29.865Z,4.39
2023-01-11T17:01:05.228Z,4.39
2023-01-11T17:03:34.159Z,4.40
2023-01-11T17:06:12.653Z,4.42
2023-01-11T17:08:41.287Z,4.41
2023-01-11T17:11:24.323Z,4.30
2023-01-11T17:14:04.485Z,4.35
2023-01-11T17:16:43.157Z,4.33
2023-01-11T17:19:18.926Z,4.34
2023-01-11T17:22:17.727Z,4.48
2023-01-11T17:24:54.322Z,4.45
2023-01-11T17:27:29.969Z,4.46
2023-01-11T17:29:58.231Z,4.39
2023-01-11T17:32:37.145Z,4.34
2023-01-11T17:35:18.819Z,4.38
2023-01-11T17:37:47.413Z,4.44
2023-01-11T17:40:29.309Z,4.55
2023-01-11T17:43:38.938Z,4.42
2023-01-11T17:46:06.309Z,4.43
2023-01-11T17:48:34.260Z,4.37
2023-01-11T17:51:02.985Z,4.44
2023-01-11T17:53:36.641Z,4.45
2023-01-11T17:56:27.351Z,4.47
2023-01-11T17:59:16.708Z,4.50
2023-01-11T18:01:49.139Z,4.53
2023-01-11T18:04:19.196Z,4.53
2023-01-11T18:06:48.469Z,4.53
2023-01-11T18:09:20.315Z,4.63
2023-01-11T18:11:47.227Z,4.65
2023-01-11T18:14:27.881Z,4.58
2023-01-11T18:17:31.903Z,4.76
2023-01-11T18:20:00.036Z,4.80
2023-01-11T18:22:30.634Z,4.76
2023-01-11T18:24:58.950Z,4.81
2023-01-11T18:27:28.792Z,4.78
2023-01-11T18:29:57.579Z,4.95
2023-01-11T18:32:24.810Z,4.81
2023-01-11T18:34:53.724Z,4.92
2023-01-11T18:41:27.915Z,4.97
2023-01-11T18:43:55.199Z,5.04
2023-01-11T18:46:21.809Z,4.97
2023-01-11T18:48:48.350Z,5.16
2023-01-11T18:51:18.409Z,5.11
2023-01-11T18:53:44.984Z,5.15
2023-01-11T18:56:11.494Z,5.17
2023-01-11T18:58:38.128Z,5.33
2023-01-11T19:04:45.964Z,5.49
2023-01-11T19:11:02.925Z,5.40
2023-01-11T19:13:30.070Z,5.50
2023-01-11T19:15:56.607Z,5.46
2023-01-11T19:18:23.114Z,5.58
2023-01-11T19:20:49.545Z,5.55
2023-01-11T19:23:15.997Z,5.54
2023-01-11T19:25:42.424Z,5.44
2023-01-11T19:28:09.227Z,5.39
2023-01-11T19:30:38.774Z,5.33
2023-01-11T19:33:05.226Z,5.49
2023-01-11T19:35:31.926Z,5.52
2023-01-11T19:37:58.383Z,5.55
2023-01-11T19:40:24.799Z,5.58
2023-01-11T19:42:52.376Z,5.64
2023-01-11T19:45:19.131Z,5.62
2023-01-11T19:47:47.023Z,5.62
2023-01-11T19:50:13.581Z,5.64
2023-01-11T19:52:40.163Z,5.66
2023-01-11T19:55:06.776Z,5.72
2023-01-11T19:57:33.296Z,5.60
2023-01-11T19:59:59.801Z,5.59
2023-01-11T20:02:26.368Z,5.55
2023-01-11T20:04:53.014Z,5.64
2023-01-11T20:07:20.311Z,5.65
2023-01-11T20:09:46.790Z,5.62
2023-01-11T20:12:16.107Z,5.56
2023-01-11T20:14:44.379Z,5.52
2023-01-11T20:17:11.144Z,5.55
2023-01-11T20:19:38.064Z,5.59
2023-01-11T20:22:04.686Z,5.53
2023-01-11T20:24:31.353Z,5.53
2023-01-11T20:27:00.036Z,5.55
2023-01-11T20:29:26.677Z,5.56
2023-01-11T20:31:53.340Z,5.48
2023-01-11T20:34:20.678Z,5.53
2023-01-11T20:36:48.454Z,5.43
2023-01-11T20:39:14.957Z,5.46
2023-01-11T20:41:47.136Z,5.54
2023-01-11T20:44:19.683Z,5.44
2023-01-11T20:46:48.096Z,5.36
2023-01-11T20:49:15.850Z,5.54
2023-01-11T20:51:43.373Z,5.57
2023-01-11T20:54:10.764Z,5.54
2023-01-11T20:56:38.594Z,5.50
2023-01-11T20:59:07.405Z,5.57
2023-01-11T21:01:35.041Z,5.53
2023-01-11T21:04:07.183Z,5.55
2023-01-11T21:06:36.241Z,5.51
2023-01-11T21:09:03.501Z,5.46
2023-01-11T21:11:31.269Z,5.46
2023-01-11T21:13:59.480Z,5.39
2023-01-11T21:16:28.148Z,5.41
2023-01-11T21:19:04.815Z,5.37
2023-01-11T21:21:33.683Z,5.32
2023-01-11T21:24:02.836Z,5.30
2023-01-11T21:26:30.482Z,5.31
2023-01-11T21:28:59.618Z,5.33
2023-01-11T21:31:31.410Z,5.24
2023-01-11T21:33:59.194Z,5.15
2023-01-11T21:36:27.252Z,5.10
2023-01-11T21:38:55.265Z,5.11
2023-01-11T21:41:43.007Z,5.06
2023-01-11T21:44:11.164Z,5.00
2023-01-11T21:46:37.967Z,5.03
2023-01-11T21:49:04.711Z,4.90
2023-01-11T21:51:31.711Z,4.97
2023-01-11T21:53:59.185Z,4.91
2023-01-11T21:56:26.396Z,4.88
2023-01-11T21:58:53.076Z,4.77
2023-01-11T22:01:21.729Z,4.97
2023-01-11T22:03:48.600Z,4.89
2023-01-11T22:06:16.009Z,5.04
2023-01-11T22:08:46.091Z,5.04
2023-01-11T22:11:15.128Z,4.94
2023-01-11T22:13:43.811Z,4.92
2023-01-11T22:16:16.176Z,4.91
2023-01-11T22:18:43.223Z,4.92
2023-01-11T22:21:18.061Z,4.86
2023-01-11T22:23:45.905Z,4.82
2023-01-11T22:26:15.749Z,4.76
2023-01-11T22:29:01.574Z,4.77
